sensor_id;sensor_type;location;lat;lon;timestamp;pressure;altitude;pressure_sealevel;temperature;humidity
68793;BME280;55778;54.346;10.210;2023-07-20T00:01:03;100797.41;;;13.35;100.00
68793;BME280;55778;54.346;10.210;2023-07-20T00:03:28;100793.81;;;13.35;100.00
68793;BME280;55778;54.346;10.210;2023-07-20T00:05:54;100791.59;;;13.38;100.00
68793;BME280;55778;54.346;10.210;2023-07-20T00:08:19;100793.28;;;13.31;100.00
68793;BME280;55778;54.346;10.210;2023-07-20T00:10:45;100794.47;;;13.29;100.00
68793;BME280;55778;54.346;10.210;2023-07-20T00:13:11;100790.50;;;13.23;100.00
68793;BME280;55778;54.346;10.210;2023-07-20T00:15:36;100792.72;;;13.20;100.00
68793;BME280;55778;54.346;10.210;2023-07-20T00:18:03;100795.06;;;13.15;100.00
68793;BME280;55778;54.346;10.210;2023-07-20T00:20:29;100789.59;;;13.15;100.00
68793;BME280;55778;54.346;10.210;2023-07-20T00:22:54;100790.22;;;13.09;100.00
68793;BME280;55778;54.346;10.210;2023-07-20T00:25:20;100785.78;;;13.08;100.00
68793;BME280;55778;54.346;10.210;2023-07-20T00:27:45;100792.47;;;13.05;100.00
68793;BME280;55778;54.346;10.210;2023-07-20T00:30:11;100787.75;;;12.98;100.00
68793;BME280;55778;54.346;10.210;2023-07-20T00:32:37;100786.16;;;12.95;100.00
68793;BME280;55778;54.346;10.210;2023-07-20T00:35:02;100785.50;;;12.93;100.00
68793;BME280;55778;54.346;10.210;2023-07-20T00:37:28;100783.00;;;13.00;100.00
68793;BME280;55778;54.346;10.210;2023-07-20T00:39:54;100780.19;;;12.92;100.00
68793;BME280;55778;54.346;10.210;2023-07-20T00:42:19;100784.22;;;12.88;100.00
68793;BME280;55778;54.346;10.210;2023-07-20T00:44:45;100784.75;;;12.83;100.00
68793;BME280;55778;54.346;10.210;2023-07-20T00:47:10;100776.00;;;12.80;100.00
68793;BME280;55778;54.346;10.210;2023-07-20T00:49:37;100773.41;;;12.78;100.00
68793;BME280;55778;54.346;10.210;2023-07-20T00:52:03;100780.91;;;12.76;100.00
68793;BME280;55778;54.346;10.210;2023-07-20T00:54:30;100784.13;;;12.72;100.00
68793;BME280;55778;54.346;10.210;2023-07-20T00:56:56;100785.16;;;12.71;100.00
68793;BME280;55778;54.346;10.210;2023-07-20T00:59:23;100777.56;;;12.65;100.00
68793;BME280;55778;54.346;10.210;2023-07-20T01:01:48;100780.63;;;12.62;100.00
68793;BME280;55778;54.346;10.210;2023-07-20T01:04:14;100773.44;;;12.61;100.00
68793;BME280;55778;54.346;10.210;2023-07-20T01:06:45;100781.97;;;12.58;100.00
68793;BME280;55778;54.346;10.210;2023-07-20T01:09:17;100776.25;;;12.51;100.00
68793;BME280;55778;54.346;10.210;2023-07-20T01:12:05;100779.31;;;12.48;100.00
68793;BME280;55778;54.346;10.210;2023-07-20T01:14:32;100785.41;;;12.42;100.00
68793;BME280;55778;54.346;10.210;2023-07-20T01:16:59;100788.13;;;12.42;100.00
68793;BME280;55778;54.346;10.210;2023-07-20T01:19:24;100787.16;;;12.43;100.00
68793;BME280;55778;54.346;10.210;2023-07-20T01:22:03;100795.97;;;12.37;100.00
68793;BME280;55778;54.346;10.210;2023-07-20T01:30:45;100803.84;;;12.40;100.00
68793;BME280;55778;54.346;10.210;2023-07-20T01:33:15;100810.94;;;12.33;100.00
68793;BME280;55778;54.346;10.210;2023-07-20T01:35:42;100798.28;;;12.32;100.00
68793;BME280;55778;54.346;10.210;2023-07-20T01:38:10;100808.97;;;12.26;100.00
68793;BME280;55778;54.346;10.210;2023-07-20T01:40:37;100804.38;;;12.26;100.00
68793;BME280;55778;54.346;10.210;2023-07-20T01:43:03;100811.72;;;12.26;100.00
68793;BME280;55778;54.346;10.210;2023-07-20T01:45:28;100809.13;;;12.24;100.00
68793;BME280;55778;54.346;10.210;2023-07-20T01:47:54;100805.56;;;12.24;100.00
68793;BME280;55778;54.346;10.210;2023-07-20T01:50:19;100808.44;;;12.22;100.00
68793;BME280;55778;54.346;10.210;2023-07-20T01:52:45;100803.28;;;12.19;100.00
68793;BME280;55778;54.346;10.210;2023-07-20T01:55:10;100805.31;;;12.17;100.00
68793;BME280;55778;54.346;10.210;2023-07-20T01:57:36;100800.31;;;12.13;100.00
68793;BME280;55778;54.346;10.210;2023-07-20T02:00:02;100807.47;;;12.13;100.00
68793;BME280;55778;54.346;10.210;2023-07-20T02:02:27;100800.16;;;12.14;100.00
68793;BME280;55778;54.346;10.210;2023-07-20T02:04:53;100801.19;;;12.13;100.00
68793;BME280;55778;54.346;10.210;2023-07-20T02:07:19;100804.38;;;12.08;100.00
68793;BME280;55778;54.346;10.210;2023-07-20T02:09:44;100801.66;;;12.08;100.00
68793;BME280;55778;54.346;10.210;2023-07-20T02:12:09;100802.66;;;12.07;100.00
68793;BME280;55778;54.346;10.210;2023-07-20T02:14:35;100802.56;;;11.99;100.00
68793;BME280;55778;54.346;10.210;2023-07-20T02:17:00;100804.19;;;11.92;100.00
68793;BME280;55778;54.346;10.210;2023-07-20T02:19:26;100800.28;;;11.95;100.00
68793;BME280;55778;54.346;10.210;2023-07-20T02:21:52;100798.75;;;11.92;100.00
68793;BME280;55778;54.346;10.210;2023-07-20T02:24:17;100796.31;;;11.89;100.00
68793;BME280;55778;54.346;10.210;2023-07-20T02:26:43;100797.16;;;11.90;100.00
68793;BME280;55778;54.346;10.210;2023-07-20T02:29:09;100796.47;;;11.88;100.00
68793;BME280;55778;54.346;10.210;2023-07-20T02:31:37;100803.78;;;11.87;100.00
68793;BME280;55778;54.346;10.210;2023-07-20T02:34:07;100796.31;;;11.89;100.00
68793;BME280;55778;54.346;10.210;2023-07-20T02:36:34;100800.59;;;11.92;100.00
68793;BME280;55778;54.346;10.210;2023-07-20T02:38:59;100799.28;;;11.96;100.00
68793;BME280;55778;54.346;10.210;2023-07-20T02:41:25;100800.44;;;11.93;100.00
68793;BME280;55778;54.346;10.210;2023-07-20T02:43:50;100792.97;;;11.95;100.00
68793;BME280;55778;54.346;10.210;2023-07-20T02:46:16;100796.34;;;12.07;100.00
68793;BME280;55778;54.346;10.210;2023-07-20T02:48:41;100788.66;;;12.10;100.00
68793;BME280;55778;54.346;10.210;2023-07-20T02:51:06;100792.72;;;12.06;100.00
68793;BME280;55778;54.346;10.210;2023-07-20T02:53:33;100795.31;;;12.08;100.00
68793;BME280;55778;54.346;10.210;2023-07-20T02:55:59;100788.00;;;12.08;100.00
68793;BME280;55778;54.346;10.210;2023-07-20T02:58:24;100790.56;;;12.10;100.00
68793;BME280;55778;54.346;10.210;2023-07-20T03:00:49;100795.63;;;12.05;100.00
68793;BME280;55778;54.346;10.210;2023-07-20T03:03:15;100786.13;;;12.09;100.00
68793;BME280;55778;54.346;10.210;2023-07-20T03:05:41;100792.06;;;12.04;100.00
68793;BME280;55778;54.346;10.210;2023-07-20T03:08:06;100792.88;;;12.05;100.00
68793;BME280;55778;54.346;10.210;2023-07-20T03:10:32;100790.88;;;12.07;100.00
68793;BME280;55778;54.346;10.210;2023-07-20T03:12:58;100794.13;;;12.10;100.00
68793;BME280;55778;54.346;10.210;2023-07-20T03:15:23;100785.25;;;12.08;100.00
68793;BME280;55778;54.346;10.210;2023-07-20T03:17:49;100788.66;;;12.10;100.00
68793;BME280;55778;54.346;10.210;2023-07-20T03:20:14;100790.41;;;12.12;100.00
68793;BME280;55778;54.346;10.210;2023-07-20T03:22:40;100792.53;;;12.18;100.00
68793;BME280;55778;54.346;10.210;2023-07-20T03:25:05;100784.47;;;12.16;100.00
68793;BME280;55778;54.346;10.210;2023-07-20T03:27:31;100783.91;;;12.13;100.00
68793;BME280;55778;54.346;10.210;2023-07-20T03:29:56;100789.38;;;12.13;100.00
68793;BME280;55778;54.346;10.210;2023-07-20T03:32:21;100789.06;;;12.16;100.00
68793;BME280;55778;54.346;10.210;2023-07-20T03:34:47;100781.13;;;12.22;100.00
68793;BME280;55778;54.346;10.210;2023-07-20T03:37:13;100781.66;;;12.26;100.00
68793;BME280;55778;54.346;10.210;2023-07-20T03:39:38;100779.00;;;12.34;100.00
68793;BME280;55778;54.346;10.210;2023-07-20T03:42:04;100784.56;;;12.42;100.00
68793;BME280;55778;54.346;10.210;2023-07-20T03:44:30;100782.19;;;12.47;100.00
68793;BME280;55778;54.346;10.210;2023-07-20T03:46:55;100780.81;;;12.43;100.00
68793;BME280;55778;54.346;10.210;2023-07-20T03:49:21;100784.41;;;12.43;100.00
68793;BME280;55778;54.346;10.210;2023-07-20T03:51:46;100778.69;;;12.54;100.00
68793;BME280;55778;54.346;10.210;2023-07-20T03:54:12;100778.28;;;12.67;100.00
68793;BME280;55778;54.346;10.210;2023-07-20T03:56:37;100773.34;;;12.70;100.00
68793;BME280;55778;54.346;10.210;2023-07-20T03:59:03;100774.84;;;12.65;100.00
68793;BME280;55778;54.346;10.210;2023-07-20T04:01:28;100773.09;;;12.81;100.00
68793;BME280;55778;54.346;10.210;2023-07-20T04:03:54;100776.69;;;12.82;100.00
68793;BME280;55778;54.346;10.210;2023-07-20T04:06:19;100780.44;;;12.81;100.00
68793;BME280;55778;54.346;10.210;2023-07-20T04:08:45;100782.66;;;12.77;100.00
68793;BME280;55778;54.346;10.210;2023-07-20T04:11:12;100785.44;;;12.85;100.00
68793;BME280;55778;54.346;10.210;2023-07-20T04:13:38;100781.31;;;12.81;100.00
68793;BME280;55778;54.346;10.210;2023-07-20T04:16:03;100785.09;;;12.88;100.00
68793;BME280;55778;54.346;10.210;2023-07-20T04:18:29;100790.03;;;13.02;100.00
68793;BME280;55778;54.346;10.210;2023-07-20T04:20:54;100780.31;;;13.08;100.00
68793;BME280;55778;54.346;10.210;2023-07-20T04:23:19;100779.78;;;13.04;100.00
68793;BME280;55778;54.346;10.210;2023-07-20T04:25:45;100781.66;;;12.86;100.00
68793;BME280;55778;54.346;10.210;2023-07-20T04:28:11;100791.59;;;12.87;100.00
68793;BME280;55778;54.346;10.210;2023-07-20T04:30:36;100791.47;;;12.71;100.00
68793;BME280;55778;54.346;10.210;2023-07-20T04:33:03;100792.47;;;12.70;100.00
68793;BME280;55778;54.346;10.210;2023-07-20T04:38:13;100796.09;;;12.71;100.00
68793;BME280;55778;54.346;10.210;2023-07-20T04:40:41;100800.75;;;12.78;100.00
68793;BME280;55778;54.346;10.210;2023-07-20T04:43:06;100792.72;;;12.77;100.00
68793;BME280;55778;54.346;10.210;2023-07-20T04:45:32;100794.34;;;12.87;100.00
68793;BME280;55778;54.346;10.210;2023-07-20T04:47:57;100791.63;;;12.95;100.00
68793;BME280;55778;54.346;10.210;2023-07-20T04:50:22;100797.53;;;13.00;100.00
68793;BME280;55778;54.346;10.210;2023-07-20T04:52:50;100797.44;;;13.10;100.00
68793;BME280;55778;54.346;10.210;2023-07-20T04:55:16;100801.19;;;13.09;100.00
68793;BME280;55778;54.346;10.210;2023-07-20T04:57:41;100796.75;;;13.08;100.00
68793;BME280;55778;54.346;10.210;2023-07-20T05:00:07;100794.38;;;13.13;100.00
68793;BME280;55778;54.346;10.210;2023-07-20T05:02:35;100792.22;;;13.24;100.00
68793;BME280;55778;54.346;10.210;2023-07-20T05:05:00;100789.50;;;13.32;100.00
68793;BME280;55778;54.346;10.210;2023-07-20T05:07:26;100793.19;;;13.41;100.00
68793;BME280;55778;54.346;10.210;2023-07-20T05:09:51;100792.38;;;13.56;100.00
68793;BME280;55778;54.346;10.210;2023-07-20T05:12:17;100789.97;;;13.53;100.00
68793;BME280;55778;54.346;10.210;2023-07-20T05:14:42;100786.47;;;13.69;100.00
68793;BME280;55778;54.346;10.210;2023-07-20T05:17:07;100789.19;;;13.69;100.00
68793;BME280;55778;54.346;10.210;2023-07-20T05:19:33;100783.72;;;13.77;100.00
68793;BME280;55778;54.346;10.210;2023-07-20T05:21:59;100786.84;;;13.82;100.00
68793;BME280;55778;54.346;10.210;2023-07-20T05:24:24;100779.50;;;13.90;100.00
68793;BME280;55778;54.346;10.210;2023-07-20T05:26:49;100776.81;;;14.06;100.00
68793;BME280;55778;54.346;10.210;2023-07-20T05:29:15;100776.38;;;14.27;100.00
68793;BME280;55778;54.346;10.210;2023-07-20T05:31:40;100776.56;;;14.34;100.00
68793;BME280;55778;54.346;10.210;2023-07-20T05:34:06;100778.09;;;14.44;100.00
68793;BME280;55778;54.346;10.210;2023-07-20T05:36:31;100773.50;;;14.45;100.00
68793;BME280;55778;54.346;10.210;2023-07-20T05:38:56;100773.31;;;14.46;100.00
68793;BME280;55778;54.346;10.210;2023-07-20T05:41:22;100772.97;;;14.57;100.00
68793;BME280;55778;54.346;10.210;2023-07-20T05:43:48;100771.09;;;14.66;100.00
68793;BME280;55778;54.346;10.210;2023-07-20T05:46:13;100770.91;;;14.67;100.00
68793;BME280;55778;54.346;10.210;2023-07-20T05:48:39;100777.09;;;14.77;100.00
68793;BME280;55778;54.346;10.210;2023-07-20T05:51:05;100767.28;;;14.75;100.00
68793;BME280;55778;54.346;10.210;2023-07-20T05:53:30;100752.91;;;14.97;100.00
68793;BME280;55778;54.346;10.210;2023-07-20T05:55:56;100756.81;;;14.94;100.00
68793;BME280;55778;54.346;10.210;2023-07-20T05:58:21;100759.56;;;15.02;100.00
68793;BME280;55778;54.346;10.210;2023-07-20T06:00:49;100758.03;;;15.00;100.00
68793;BME280;55778;54.346;10.210;2023-07-20T06:03:15;100763.53;;;15.00;100.00
68793;BME280;55778;54.346;10.210;2023-07-20T06:05:42;100759.41;;;15.04;100.00
68793;BME280;55778;54.346;10.210;2023-07-20T06:08:07;100759.69;;;15.09;100.00
68793;BME280;55778;54.346;10.210;2023-07-20T06:10:32;100754.56;;;15.14;100.00
68793;BME280;55778;54.346;10.210;2023-07-20T06:12:58;100755.44;;;15.14;100.00
68793;BME280;55778;54.346;10.210;2023-07-20T06:15:28;100750.94;;;15.21;100.00
68793;BME280;55778;54.346;10.210;2023-07-20T06:17:55;100763.44;;;15.24;100.00
68793;BME280;55778;54.346;10.210;2023-07-20T06:20:22;100753.84;;;15.20;100.00
68793;BME280;55778;54.346;10.210;2023-07-20T06:22:47;100751.28;;;15.18;100.00
68793;BME280;55778;54.346;10.210;2023-07-20T06:25:13;100750.41;;;15.26;100.00
68793;BME280;55778;54.346;10.210;2023-07-20T06:27:38;100763.47;;;15.40;100.00
68793;BME280;55778;54.346;10.210;2023-07-20T06:30:04;100755.50;;;15.53;100.00
68793;BME280;55778;54.346;10.210;2023-07-20T06:32:30;100752.59;;;15.54;100.00
68793;BME280;55778;54.346;10.210;2023-07-20T06:34:55;100749.03;;;15.38;100.00
68793;BME280;55778;54.346;10.210;2023-07-20T06:37:20;100763.09;;;15.35;100.00
68793;BME280;55778;54.346;10.210;2023-07-20T06:39:46;100757.94;;;15.32;100.00
68793;BME280;55778;54.346;10.210;2023-07-20T06:42:12;100761.91;;;15.29;100.00
68793;BME280;55778;54.346;10.210;2023-07-20T06:44:37;100765.81;;;15.43;100.00
68793;BME280;55778;54.346;10.210;2023-07-20T06:47:03;100765.97;;;15.49;100.00
68793;BME280;55778;54.346;10.210;2023-07-20T06:49:28;100772.09;;;15.67;100.00
68793;BME280;55778;54.346;10.210;2023-07-20T06:51:54;100764.66;;;15.76;100.00
68793;BME280;55778;54.346;10.210;2023-07-20T06:54:20;100755.75;;;15.74;100.00
68793;BME280;55778;54.346;10.210;2023-07-20T06:56:45;100750.53;;;15.87;100.00
68793;BME280;55778;54.346;10.210;2023-07-20T06:59:10;100760.81;;;15.93;100.00
68793;BME280;55778;54.346;10.210;2023-07-20T07:01:37;100751.13;;;16.05;100.00
68793;BME280;55778;54.346;10.210;2023-07-20T07:04:02;100755.81;;;16.19;99.76
68793;BME280;55778;54.346;10.210;2023-07-20T07:06:29;100756.16;;;16.24;98.96
68793;BME280;55778;54.346;10.210;2023-07-20T07:08:54;100735.72;;;16.41;95.76
68793;BME280;55778;54.346;10.210;2023-07-20T07:11:21;100746.94;;;16.62;92.33
68793;BME280;55778;54.346;10.210;2023-07-20T07:13:46;100745.97;;;16.92;92.39
68793;BME280;55778;54.346;10.210;2023-07-20T07:16:12;100739.22;;;16.58;92.22
68793;BME280;55778;54.346;10.210;2023-07-20T07:18:39;100734.44;;;16.74;92.94
68793;BME280;55778;54.346;10.210;2023-07-20T07:21:05;100737.72;;;16.25;90.43
68793;BME280;55778;54.346;10.210;2023-07-20T07:23:31;100739.53;;;16.85;92.28
68793;BME280;55778;54.346;10.210;2023-07-20T07:25:56;100746.56;;;17.31;90.99
68793;BME280;55778;54.346;10.210;2023-07-20T07:28:21;100748.19;;;17.40;87.95
68793;BME280;55778;54.346;10.210;2023-07-20T07:30:47;100754.25;;;16.92;90.30
68793;BME280;55778;54.346;10.210;2023-07-20T07:33:13;100747.53;;;16.72;93.38
68793;BME280;55778;54.346;10.210;2023-07-20T07:35:38;100750.59;;;16.55;91.99
68793;BME280;55778;54.346;10.210;2023-07-20T07:38:04;100756.31;;;16.90;91.96
68793;BME280;55778;54.346;10.210;2023-07-20T07:40:31;100755.97;;;16.71;92.65
68793;BME280;55778;54.346;10.210;2023-07-20T07:42:56;100743.06;;;16.71;91.56
68793;BME280;55778;54.346;10.210;2023-07-20T07:45:22;100750.56;;;17.14;91.59
68793;BME280;55778;54.346;10.210;2023-07-20T07:47:47;100759.78;;;17.36;89.22
68793;BME280;55778;54.346;10.210;2023-07-20T07:50:12;100749.81;;;16.69;91.20
68793;BME280;55778;54.346;10.210;2023-07-20T07:52:38;100770.22;;;16.52;91.99
68793;BME280;55778;54.346;10.210;2023-07-20T07:55:04;100771.66;;;16.40;94.52
68793;BME280;55778;54.346;10.210;2023-07-20T07:57:29;100773.66;;;16.23;94.58
68793;BME280;55778;54.346;10.210;2023-07-20T07:59:54;100774.50;;;16.01;99.23
68793;BME280;55778;54.346;10.210;2023-07-20T08:02:20;100777.78;;;15.66;100.00
68793;BME280;55778;54.346;10.210;2023-07-20T08:04:46;100780.22;;;15.53;100.00
68793;BME280;55778;54.346;10.210;2023-07-20T08:07:12;100781.13;;;15.21;100.00
68793;BME280;55778;54.346;10.210;2023-07-20T08:09:37;100778.25;;;15.07;100.00
68793;BME280;55778;54.346;10.210;2023-07-20T08:12:03;100782.72;;;14.92;100.00
68793;BME280;55778;54.346;10.210;2023-07-20T08:14:29;100787.22;;;14.85;100.00
68793;BME280;55778;54.346;10.210;2023-07-20T08:16:54;100787.50;;;15.14;100.00
68793;BME280;55778;54.346;10.210;2023-07-20T08:19:19;100775.03;;;15.66;100.00
68793;BME280;55778;54.346;10.210;2023-07-20T08:21:45;100768.97;;;16.09;100.00
68793;BME280;55778;54.346;10.210;2023-07-20T08:24:11;100761.06;;;16.59;100.00
68793;BME280;55778;54.346;10.210;2023-07-20T08:26:36;100766.25;;;16.54;100.00
68793;BME280;55778;54.346;10.210;2023-07-20T08:29:01;100759.63;;;16.86;100.00
68793;BME280;55778;54.346;10.210;2023-07-20T08:31:27;100766.59;;;17.11;99.30
68793;BME280;55778;54.346;10.210;2023-07-20T08:33:53;100773.72;;;16.68;98.95
68793;BME280;55778;54.346;10.210;2023-07-20T08:36:19;100772.44;;;16.03;100.00
68793;BME280;55778;54.346;10.210;2023-07-20T08:38:44;100774.56;;;15.54;100.00
68793;BME280;55778;54.346;10.210;2023-07-20T08:41:09;100777.16;;;15.32;100.00
68793;BME280;55778;54.346;10.210;2023-07-20T08:43:37;100789.38;;;15.29;100.00
68793;BME280;55778;54.346;10.210;2023-07-20T08:46:03;100773.34;;;15.57;100.00
68793;BME280;55778;54.346;10.210;2023-07-20T08:48:30;100786.19;;;16.03;100.00
68793;BME280;55778;54.346;10.210;2023-07-20T08:50:57;100782.03;;;16.07;100.00
68793;BME280;55778;54.346;10.210;2023-07-20T08:53:24;100783.00;;;15.83;100.00
68793;BME280;55778;54.346;10.210;2023-07-20T08:55:52;100780.97;;;15.77;100.00
68793;BME280;55778;54.346;10.210;2023-07-20T08:58:18;100786.53;;;15.69;100.00
68793;BME280;55778;54.346;10.210;2023-07-20T09:00:44;100770.53;;;16.04;100.00
68793;BME280;55778;54.346;10.210;2023-07-20T09:03:11;100789.19;;;16.69;100.00
68793;BME280;55778;54.346;10.210;2023-07-20T09:05:37;100761.91;;;16.82;100.00
68793;BME280;55778;54.346;10.210;2023-07-20T09:08:04;100781.84;;;16.62;99.09
68793;BME280;55778;54.346;10.210;2023-07-20T09:10:29;100773.72;;;16.46;98.34
68793;BME280;55778;54.346;10.210;2023-07-20T09:12:55;100769.81;;;16.63;100.00
68793;BME280;55778;54.346;10.210;2023-07-20T09:15:22;100765.41;;;16.76;98.64
68793;BME280;55778;54.346;10.210;2023-07-20T09:17:49;100782.19;;;17.33;99.86
68793;BME280;55778;54.346;10.210;2023-07-20T09:20:16;100774.13;;;17.89;94.32
68793;BME280;55778;54.346;10.210;2023-07-20T09:22:42;100765.38;;;18.01;86.47
68793;BME280;55778;54.346;10.210;2023-07-20T09:25:16;100780.13;;;17.93;90.18
68793;BME280;55778;54.346;10.210;2023-07-20T09:27:46;100782.31;;;17.25;92.84
68793;BME280;55778;54.346;10.210;2023-07-20T09:30:48;100789.53;;;16.66;99.21
68793;BME280;55778;54.346;10.210;2023-07-20T09:33:26;100789.22;;;16.39;97.11
68793;BME280;55778;54.346;10.210;2023-07-20T09:36:05;100802.03;;;16.24;100.00
68793;BME280;55778;54.346;10.210;2023-07-20T09:38:50;100799.09;;;16.56;100.00
68793;BME280;55778;54.346;10.210;2023-07-20T09:41:15;100794.75;;;17.21;100.00
68793;BME280;55778;54.346;10.210;2023-07-20T09:43:53;100783.88;;;17.05;96.97
68793;BME280;55778;54.346;10.210;2023-07-20T09:50:11;100789.31;;;18.50;92.00
68793;BME280;55778;54.346;10.210;2023-07-20T09:52:40;100782.75;;;18.16;87.30
68793;BME280;55778;54.346;10.210;2023-07-20T09:55:09;100802.88;;;17.51;89.68
68793;BME280;55778;54.346;10.210;2023-07-20T09:57:50;100821.78;;;16.58;98.64
68793;BME280;55778;54.346;10.210;2023-07-20T10:00:20;100837.59;;;15.40;100.00
68793;BME280;55778;54.346;10.210;2023-07-20T10:02:46;100837.28;;;14.95;100.00
68793;BME280;55778;54.346;10.210;2023-07-20T10:05:15;100843.59;;;14.79;100.00
68793;BME280;55778;54.346;10.210;2023-07-20T10:08:07;100841.38;;;14.75;100.00
68793;BME280;55778;54.346;10.210;2023-07-20T10:10:35;100832.13;;;14.68;100.00
68793;BME280;55778;54.346;10.210;2023-07-20T10:13:04;100834.69;;;14.93;100.00
68793;BME280;55778;54.346;10.210;2023-07-20T10:15:46;100817.69;;;15.22;100.00
68793;BME280;55778;54.346;10.210;2023-07-20T10:20:42;100821.59;;;16.29;100.00
68793;BME280;55778;54.346;10.210;2023-07-20T10:23:08;100808.56;;;16.98;100.00
68793;BME280;55778;54.346;10.210;2023-07-20T10:25:34;100804.91;;;17.35;96.70
68793;BME280;55778;54.346;10.210;2023-07-20T10:28:04;100800.94;;;17.96;96.38
68793;BME280;55778;54.346;10.210;2023-07-20T10:30:30;100794.13;;;18.42;90.12
68793;BME280;55778;54.346;10.210;2023-07-20T10:32:55;100787.63;;;18.35;86.31
68793;BME280;55778;54.346;10.210;2023-07-20T10:35:21;100796.28;;;17.96;86.64
68793;BME280;55778;54.346;10.210;2023-07-20T10:37:53;100799.25;;;17.80;86.69
68793;BME280;55778;54.346;10.210;2023-07-20T10:42:50;100784.25;;;17.53;87.95
68793;BME280;55778;54.346;10.210;2023-07-20T10:45:17;100784.53;;;17.88;86.53
68793;BME280;55778;54.346;10.210;2023-07-20T10:47:46;100785.25;;;17.96;86.56
68793;BME280;55778;54.346;10.210;2023-07-20T10:50:12;100785.66;;;18.64;84.23
68793;BME280;55778;54.346;10.210;2023-07-20T10:52:39;100782.22;;;18.83;79.53
68793;BME280;55778;54.346;10.210;2023-07-20T10:55:14;100779.53;;;18.69;77.91
68793;BME280;55778;54.346;10.210;2023-07-20T10:57:40;100778.34;;;18.57;78.32
68793;BME280;55778;54.346;10.210;2023-07-20T11:00:13;100778.06;;;18.94;79.25
68793;BME280;55778;54.346;10.210;2023-07-20T11:02:46;100769.72;;;19.70;75.07
68793;BME280;55778;54.346;10.210;2023-07-20T11:07:56;100778.97;;;19.90;66.53
68793;BME280;55778;54.346;10.210;2023-07-20T11:10:22;100776.13;;;20.18;68.63
68793;BME280;55778;54.346;10.210;2023-07-20T11:13:19;100776.88;;;19.03;65.97
68793;BME280;55778;54.346;10.210;2023-07-20T11:18:25;100780.38;;;18.90;61.45
68793;BME280;55778;54.346;10.210;2023-07-20T11:20:51;100783.09;;;19.11;60.64
68793;BME280;55778;54.346;10.210;2023-07-20T11:23:19;100783.00;;;19.26;59.90
68793;BME280;55778;54.346;10.210;2023-07-20T11:25:44;100787.50;;;19.54;57.85
68793;BME280;55778;54.346;10.210;2023-07-20T11:28:10;100781.00;;;19.34;57.00
68793;BME280;55778;54.346;10.210;2023-07-20T11:30:39;100785.88;;;19.11;57.97
68793;BME280;55778;54.346;10.210;2023-07-20T11:33:05;100787.03;;;19.51;59.45
68793;BME280;55778;54.346;10.210;2023-07-20T11:35:35;100786.94;;;19.10;60.96
68793;BME280;55778;54.346;10.210;2023-07-20T11:38:00;100784.31;;;19.02;60.89
68793;BME280;55778;54.346;10.210;2023-07-20T11:40:26;100788.28;;;19.42;58.52
68793;BME280;55778;54.346;10.210;2023-07-20T11:42:51;100775.13;;;19.85;57.92
68793;BME280;55778;54.346;10.210;2023-07-20T11:45:17;100786.53;;;19.41;57.62
68793;BME280;55778;54.346;10.210;2023-07-20T11:47:43;100789.16;;;19.49;59.27
68793;BME280;55778;54.346;10.210;2023-07-20T11:50:09;100791.72;;;19.85;58.90
68793;BME280;55778;54.346;10.210;2023-07-20T11:52:36;100792.88;;;19.35;57.73
68793;BME280;55778;54.346;10.210;2023-07-20T11:55:02;100782.81;;;19.89;56.54
68793;BME280;55778;54.346;10.210;2023-07-20T11:57:28;100791.00;;;20.10;56.73
68793;BME280;55778;54.346;10.210;2023-07-20T12:02:22;100797.56;;;20.09;57.07
68793;BME280;55778;54.346;10.210;2023-07-20T12:04:50;100788.81;;;20.59;54.61
68793;BME280;55778;54.346;10.210;2023-07-20T12:07:15;100787.75;;;20.67;55.24
68793;BME280;55778;54.346;10.210;2023-07-20T12:09:41;100781.41;;;19.72;58.03
68793;BME280;55778;54.346;10.210;2023-07-20T12:12:10;100786.75;;;19.73;57.63
68793;BME280;55778;54.346;10.210;2023-07-20T12:14:37;100792.94;;;19.20;59.02
68793;BME280;55778;54.346;10.210;2023-07-20T12:17:02;100795.16;;;18.83;61.24
68793;BME280;55778;54.346;10.210;2023-07-20T12:19:28;100790.81;;;18.74;59.49
68793;BME280;55778;54.346;10.210;2023-07-20T12:21:57;100788.22;;;19.14;57.86
68793;BME280;55778;54.346;10.210;2023-07-20T12:24:24;100784.56;;;19.62;57.38
68793;BME280;55778;54.346;10.210;2023-07-20T12:26:56;100775.13;;;19.91;54.70
68793;BME280;55778;54.346;10.210;2023-07-20T12:29:24;100775.72;;;20.14;56.13
68793;BME280;55778;54.346;10.210;2023-07-20T12:31:51;100768.94;;;19.48;56.35
68793;BME280;55778;54.346;10.210;2023-07-20T12:34:17;100788.34;;;19.89;57.06
68793;BME280;55778;54.346;10.210;2023-07-20T12:36:42;100782.44;;;20.05;57.46
68793;BME280;55778;54.346;10.210;2023-07-20T12:39:08;100781.09;;;20.35;56.12
68793;BME280;55778;54.346;10.210;2023-07-20T12:41:33;100776.28;;;20.76;56.03
68793;BME280;55778;54.346;10.210;2023-07-20T12:43:58;100779.03;;;20.70;56.30
68793;BME280;55778;54.346;10.210;2023-07-20T12:46:25;100790.75;;;20.59;57.00
68793;BME280;55778;54.346;10.210;2023-07-20T12:48:50;100791.56;;;19.99;57.79
68793;BME280;55778;54.346;10.210;2023-07-20T12:51:16;100789.09;;;19.76;56.89
68793;BME280;55778;54.346;10.210;2023-07-20T12:53:42;100787.09;;;19.57;58.13
68793;BME280;55778;54.346;10.210;2023-07-20T12:56:07;100790.94;;;19.63;60.00